Time;durP1;ratioP1;P1;durP2;ratioP2;P2;SDS_P1;SDS_P2;PMS_P1;PMS_P2;Temp;Humidity;BMP_temperature;BMP_pressure;BME280_temperature;BME280_humidity;BME280_pressure;Samples;Min_cycle;Max_cycle;Signal;HPM_P1;HPM_P2
2021/07/24 07:21:11;;;;;;;5.97;3.95;;;;;;;24.95;100.00;99021.23;1735538;78;21114;-67
2021/07/24 07:23:40;;;;;;;5.10;4.05;;;;;;;25.07;100.00;99026.35;1660659;85;21105;-64
2021/07/24 07:26:08;;;;;;;11.18;4.33;;;;;;;25.16;100.00;99016.77;1662499;85;21564;-68
2021/07/24 07:28:36;;;;;;;5.10;3.70;;;;;;;25.24;100.00;99021.16;1670929;84;21494;-66
2021/07/24 07:31:05;;;;;;;10.53;4.40;;;;;;;25.33;100.00;99013.30;1666513;84;21462;-68
2021/07/24 07:33:35;;;;;;;12.88;3.87;;;;;;;25.42;100.00;99016.71;1672217;83;20880;-68
2021/07/24 07:36:04;;;;;;;5.97;4.00;;;;;;;25.52;100.00;99020.13;1679592;85;20948;-70
2021/07/24 07:38:31;;;;;;;5.20;3.98;;;;;;;25.59;100.00;99017.41;1676414;85;20893;-70
2021/07/24 07:41:02;;;;;;;5.10;3.70;;;;;;;25.69;100.00;99019.88;1673694;85;22008;-68
2021/07/24 07:43:30;;;;;;;5.50;4.00;;;;;;;25.78;100.00;99011.61;1675043;84;20971;-70
2021/07/24 07:45:57;;;;;;;9.13;3.95;;;;;;;25.87;100.00;99010.47;1670017;85;21539;-68
2021/07/24 07:48:26;;;;;;;5.78;4.10;;;;;;;25.96;100.00;99015.70;1674083;85;21493;-69
2021/07/24 07:50:54;;;;;;;7.15;4.08;;;;;;;26.03;100.00;99013.84;1651015;84;20948;-69
2021/07/24 07:53:22;;;;;;;7.62;4.03;;;;;;;26.09;100.00;99024.70;1627721;87;21263;-66
2021/07/24 07:55:53;;;;;;;6.35;3.80;;;;;;;26.15;100.00;99017.98;1629880;87;21513;-66
2021/07/24 07:58:23;;;;;;;9.00;4.10;;;;;;;26.21;100.00;99019.77;1662333;85;21010;-69
2021/07/24 08:00:52;;;;;;;6.53;3.80;;;;;;;26.28;100.00;99022.89;1660570;85;21019;-69
2021/07/24 08:03:24;;;;;;;3.90;3.50;;;;;;;26.33;100.00;99020.75;1633244;86;21125;-69
2021/07/24 08:05:53;;;;;;;7.47;3.20;;;;;;;26.33;100.00;99017.55;1674770;84;21316;-70
2021/07/24 08:08:23;;;;;;;7.10;3.95;;;;;;;26.33;100.00;99014.84;1673536;84;21059;-69
2021/07/24 08:10:52;;;;;;;7.45;3.33;;;;;;;26.37;100.00;99016.84;1674632;85;21050;-70
2021/07/24 08:13:20;;;;;;;5.78;3.20;;;;;;;26.45;100.00;99018.50;1669685;84;21023;-69
2021/07/24 08:15:48;;;;;;;8.65;3.17;;;;;;;26.54;100.00;99022.40;1664750;85;21027;-68
2021/07/24 08:18:16;;;;;;;6.33;3.85;;;;;;;26.63;100.00;99019.02;1669848;84;21102;-69
2021/07/24 08:20:44;;;;;;;6.37;3.20;;;;;;;26.74;99.99;99016.86;1661728;84;21019;-69
2021/07/24 08:23:15;;;;;;;5.37;3.62;;;;;;;26.82;97.38;99018.02;1667118;84;20944;-69
2021/07/24 08:25:44;;;;;;;8.33;3.70;;;;;;;26.92;96.43;99012.78;1645202;85;21098;-74
2021/07/24 08:28:11;;;;;;;5.22;2.83;;;;;;;27.03;96.47;99017.45;1670888;85;21024;-72
2021/07/24 08:30:39;;;;;;;9.05;4.87;;;;;;;27.14;93.04;99018.84;1660014;84;21501;-69
2021/07/24 08:33:08;;;;;;;4.72;3.62;;;;;;;27.20;90.15;99021.95;1663321;84;21438;-69
2021/07/24 08:35:36;;;;;;;5.80;3.08;;;;;;;27.31;91.61;99022.97;1664165;84;21570;-68
2021/07/24 08:38:03;;;;;;;5.37;2.77;;;;;;;27.43;89.57;99024.73;1666904;84;21130;-68
2021/07/24 08:40:31;;;;;;;10.53;3.10;;;;;;;27.52;86.48;99026.27;1674706;85;20951;-70
2021/07/24 08:43:07;;;;;;;7.65;3.22;;;;;;;27.63;83.60;99019.19;1684090;84;21992;-70
2021/07/24 08:45:38;;;;;;;9.20;3.47;;;;;;;27.73;81.00;99018.83;1667918;84;20978;-69
2021/07/24 08:48:07;;;;;;;11.68;3.45;;;;;;;27.81;79.41;99021.31;1652214;85;21000;-69
2021/07/24 08:50:35;;;;;;;5.95;3.33;;;;;;;27.89;76.99;99024.77;1636299;86;21045;-69
2021/07/24 08:53:07;;;;;;;4.35;3.00;;;;;;;27.97;76.71;99019.63;1646489;85;21043;-70
2021/07/24 08:55:39;;;;;;;;;;;;;;;28.03;72.47;99021.86;1651559;85;21121;-65
2021/07/24 08:58:10;;;;;;;12.68;3.22;;;;;;;28.07;70.37;99015.70;1660955;84;26332;-66
2021/07/24 09:00:37;;;;;;;5.80;3.00;;;;;;;28.12;67.49;99016.19;1652600;84;21556;-70
2021/07/24 09:03:04;;;;;;;4.15;3.10;;;;;;;28.19;69.92;99018.78;1660465;84;21509;-70
2021/07/24 09:05:33;;;;;;;4.15;3.00;;;;;;;28.26;71.84;99016.46;1663093;83;21018;-69
2021/07/24 09:08:01;;;;;;;4.00;2.87;;;;;;;28.37;73.34;99027.30;1666579;84;21146;-70
2021/07/24 09:10:30;;;;;;;7.03;3.50;;;;;;;28.47;73.53;99024.24;1677863;84;20960;-71
2021/07/24 09:12:58;;;;;;;7.12;2.90;;;;;;;28.58;71.78;99025.58;1669190;84;21088;-71
2021/07/24 09:15:26;;;;;;;7.45;2.87;;;;;;;28.69;72.91;99025.56;1675221;84;21030;-71
2021/07/24 09:17:54;;;;;;;7.15;3.08;;;;;;;28.82;71.28;99019.48;1681510;83;21417;-71
2021/07/24 09:20:24;;;;;;;5.03;3.37;;;;;;;28.95;69.03;99019.88;1685429;83;21868;-70
2021/07/24 09:22:53;;;;;;;5.08;2.98;;;;;;;29.02;63.67;99019.73;1671608;83;20998;-70
2021/07/24 09:25:22;;;;;;;3.72;3.00;;;;;;;29.06;58.81;99026.63;1664258;84;20971;-71
2021/07/24 09:27:55;;;;;;;7.65;2.55;;;;;;;29.11;62.75;99027.10;1670374;84;20923;-69
2021/07/24 09:30:31;;;;;;;3.90;3.10;;;;;;;29.22;62.97;99025.70;1668513;84;21003;-71
2021/07/24 09:33:10;;;;;;;4.53;3.17;;;;;;;29.33;62.56;99020.73;1679720;84;21162;-66
2021/07/24 09:35:43;;;;;;;3.10;2.80;;;;;;;29.42;62.96;99017.23;1667109;84;21549;-69
2021/07/24 09:38:18;;;;;;;6.17;2.75;;;;;;;29.51;61.65;99021.05;1647031;85;21011;-70
2021/07/24 09:40:47;;;;;;;3.35;2.95;;;;;;;29.61;61.94;99020.13;1662339;83;21004;-72
2021/07/24 09:43:35;;;;;;;4.35;3.40;;;;;;;29.72;64.54;99017.33;1651864;85;21427;-70
2021/07/24 09:46:16;;;;;;;6.05;3.20;;;;;;;29.81;60.83;99018.42;1612702;87;21180;-69
2021/07/24 09:48:48;;;;;;;12.57;3.37;;;;;;;29.89;57.17;99015.89;1621977;86;21026;-70
2021/07/24 09:51:36;;;;;;;;;;;;;;;29.88;54.41;99013.30;1678573;84;21235;-70
2021/07/24 09:54:04;;;;;;;3.75;3.00;;;;;;;29.91;54.46;99015.75;1647102;85;20528;-69
2021/07/24 09:56:44;;;;;;;5.62;2.77;;;;;;;29.95;53.61;99014.48;1673925;83;21431;-70
2021/07/24 09:59:29;;;;;;;10.82;3.30;;;;;;;30.00;52.95;99014.94;1638299;85;21192;-69
2021/07/24 10:02:06;;;;;;;3.37;2.87;;;;;;;30.08;52.41;99015.16;1638887;85;21095;-70
2021/07/24 10:04:38;;;;;;;3.40;2.60;;;;;;;30.17;49.65;99010.76;1609101;87;21447;-63
2021/07/24 10:07:09;;;;;;;3.90;3.00;;;;;;;30.25;49.39;99012.30;1667046;83;20959;-67
2021/07/24 10:09:40;;;;;;;4.08;2.65;;;;;;;30.29;51.03;99015.14;1671277;85;22100;-66
2021/07/24 10:12:13;;;;;;;4.12;2.70;;;;;;;30.38;53.33;99017.03;1658960;85;20899;-67
2021/07/24 10:14:39;;;;;;;4.90;3.25;;;;;;;30.48;54.67;99011.63;1666813;85;20968;-67
2021/07/24 10:17:09;;;;;;;4.33;2.83;;;;;;;30.59;52.76;99012.88;1660994;84;20954;-69
2021/07/24 10:19:37;;;;;;;4.37;2.40;;;;;;;30.64;52.56;99011.48;1663262;84;21685;-68
2021/07/24 10:22:05;;;;;;;6.28;3.33;;;;;;;30.69;49.97;99013.28;1640426;84;21606;-69
2021/07/24 10:24:33;;;;;;;5.03;2.65;;;;;;;30.74;48.44;99015.59;1626465;85;21818;-69
2021/07/24 10:27:17;;;;;;;6.97;2.72;;;;;;;30.81;48.24;99012.69;1658950;85;20976;-68
2021/07/24 10:29:52;;;;;;;17.62;2.60;;;;;;;30.86;46.90;99009.55;1608203;86;21135;-69
2021/07/24 10:32:24;;;;;;;9.50;2.60;;;;;;;30.92;46.56;99008.48;1654936;84;21056;-68
2021/07/24 10:34:52;;;;;;;6.22;2.60;;;;;;;30.99;45.96;99000.60;1646274;85;21550;-63
2021/07/24 10:37:42;;;;;;;18.10;2.80;;;;;;;31.04;43.47;99003.76;1669791;85;21232;-67
2021/07/24 10:40:23;;;;;;;6.55;2.52;;;;;;;31.10;45.30;99002.33;1643856;86;21558;-66
2021/07/24 10:42:52;;;;;;;2.42;2.22;;;;;;;31.20;46.69;99004.08;1631627;86;21036;-63
2021/07/24 10:45:46;;;;;;;3.77;2.30;;;;;;;31.29;44.84;98997.80;1650063;85;21024;-64
2021/07/24 10:48:22;;;;;;;8.10;2.47;;;;;;;31.38;45.11;98999.30;1627169;85;21209;-66
2021/07/24 10:51:01;;;;;;;4.78;1.90;;;;;;;31.42;42.65;98994.78;1657063;84;22379;-67
2021/07/24 10:53:29;;;;;;;2.92;2.60;;;;;;;31.44;41.40;98995.48;1676231;85;21103;-66
2021/07/24 10:55:57;;;;;;;4.80;2.50;;;;;;;31.51;42.56;98993.05;1665340;84;21568;-68
2021/07/24 10:58:26;;;;;;;5.10;2.40;;;;;;;31.57;41.95;98996.55;1670377;84;21066;-68
2021/07/24 11:00:57;;;;;;;3.30;2.25;;;;;;;31.62;40.89;98992.88;1660992;84;20990;-68
2021/07/24 11:03:43;;;;;;;4.08;2.33;;;;;;;31.62;42.21;98991.02;1646042;85;21998;-68
2021/07/24 11:06:34;;;;;;;3.80;2.30;;;;;;;31.68;42.71;98990.06;1625168;87;20924;-68
2021/07/24 11:09:15;;;;;;;3.05;2.40;;;;;;;31.74;42.14;98989.05;1616913;87;21052;-68
2021/07/24 11:11:45;;;;;;;3.97;2.20;;;;;;;31.80;42.06;98992.55;1621179;87;21522;-67
2021/07/24 11:14:38;;;;;;;2.50;2.22;;;;;;;31.81;42.58;98994.27;1604630;87;21588;-67
2021/07/24 11:17:12;;;;;;;3.60;2.12;;;;;;;31.85;41.76;98995.69;1613897;87;21369;-67
2021/07/24 11:19:53;;;;;;;3.87;2.27;;;;;;;31.89;41.05;98989.43;1658207;84;21002;-67
2021/07/24 11:22:27;;;;;;;4.75;2.65;;;;;;;31.96;41.18;98984.23;1622548;87;21059;-67
2021/07/24 11:25:01;;;;;;;5.75;2.50;;;;;;;32.00;38.41;98993.84;1653129;85;21556;-68
2021/07/24 11:27:34;;;;;;;4.00;2.45;;;;;;;32.02;38.92;98995.92;1640630;86;20960;-67
2021/07/24 11:30:11;;;;;;;4.37;2.45;;;;;;;32.02;39.28;98994.55;1669527;84;21136;-68
2021/07/24 11:32:42;;;;;;;4.30;2.12;;;;;;;31.96;38.94;98996.52;1672674;84;20977;-68
2021/07/24 11:35:12;;;;;;;2.95;2.27;;;;;;;31.82;39.06;99000.08;1643772;85;20929;-67
2021/07/24 11:37:48;;;;;;;3.65;2.25;;;;;;;31.68;39.22;98996.88;1616604;87;21514;-68
2021/07/24 11:40:23;;;;;;;3.65;2.35;;;;;;;31.51;39.18;99003.95;1658407;85;20955;-68
2021/07/24 11:43:04;;;;;;;3.72;2.40;;;;;;;31.31;39.55;98999.88;1643944;85;21210;-68
2021/07/24 11:45:33;;;;;;;13.32;3.15;;;;;;;31.11;40.57;98999.96;1662541;84;21025;-68
2021/07/24 11:48:11;;;;;;;5.37;2.55;;;;;;;30.91;40.09;98992.28;1661732;84;20979;-68
2021/07/24 11:50:41;;;;;;;2.80;2.30;;;;;;;30.74;40.28;98998.39;1652384;84;21720;-68
2021/07/24 11:53:12;;;;;;;3.98;2.62;;;;;;;30.55;40.68;99002.76;1652833;85;21076;-68
2021/07/24 11:55:42;;;;;;;3.00;2.70;;;;;;;30.40;41.31;98994.63;1668864;84;21083;-68
2021/07/24 11:58:16;;;;;;;3.52;2.58;;;;;;;30.25;40.06;98997.33;1631320;85;21542;-66
2021/07/24 12:00:53;;;;;;;3.15;2.85;;;;;;;30.17;41.14;98988.50;1655924;85;21185;-65
2021/07/24 12:03:33;;;;;;;4.42;2.70;;;;;;;30.11;40.59;98993.63;1659736;84;20987;-67
2021/07/24 12:06:13;;;;;;;4.08;2.65;;;;;;;30.16;42.44;98994.08;1654145;85;21006;-67
2021/07/24 12:08:42;;;;;;;2.95;2.65;;;;;;;30.30;44.74;98991.87;1656201;85;21150;-66
2021/07/24 12:11:16;;;;;;;4.80;2.92;;;;;;;30.45;43.97;98990.13;1655686;85;21444;-68
2021/07/24 12:13:46;;;;;;;2.98;2.72;;;;;;;30.55;43.35;98990.51;1647131;85;21487;-68
2021/07/24 12:16:17;;;;;;;4.95;2.90;;;;;;;30.62;43.91;98982.17;1648740;85;20971;-67
2021/07/24 12:18:48;;;;;;;5.17;2.95;;;;;;;30.68;42.96;98987.06;1642887;86;21009;-69
2021/07/24 12:21:21;;;;;;;2.92;2.47;;;;;;;30.74;44.26;98993.80;1632668;84;21146;-67
2021/07/24 12:24:01;;;;;;;7.40;3.17;;;;;;;30.81;44.55;98994.13;1649017;85;21041;-68
2021/07/24 12:26:34;;;;;;;3.40;2.50;;;;;;;30.89;44.75;98992.42;1661231;84;20942;-67
2021/07/24 12:29:12;;;;;;;3.27;2.67;;;;;;;30.99;44.30;98996.02;1676649;84;20958;-68
2021/07/24 12:31:48;;;;;;;8.63;2.98;;;;;;;31.07;44.86;98984.91;1671501;84;20955;-68
2021/07/24 12:34:21;;;;;;;3.58;2.92;;;;;;;31.15;45.04;98991.86;1674910;84;21148;-70
2021/07/24 12:36:58;;;;;;;4.22;2.98;;;;;;;31.22;44.43;98988.48;1661992;84;20919;-69
2021/07/24 12:39:28;;;;;;;5.15;2.50;;;;;;;31.28;44.04;98988.41;1666053;84;21014;-71
2021/07/24 12:42:07;;;;;;;4.75;2.58;;;;;;;31.27;44.14;98984.82;1678088;84;20927;-70
2021/07/24 12:44:55;;;;;;;3.90;2.58;;;;;;;31.26;44.70;98990.41;1663313;85;21000;-70
2021/07/24 12:47:23;;;;;;;4.87;2.60;;;;;;;31.22;44.32;98989.84;1647648;85;21775;-70
2021/07/24 12:49:52;;;;;;;4.37;2.95;;;;;;;31.19;46.16;98993.33;1667672;84;20976;-70
2021/07/24 12:52:35;;;;;;;3.05;2.58;;;;;;;31.18;46.49;98992.47;1646404;85;21605;-69
2021/07/24 12:55:18;;;;;;;5.60;2.62;;;;;;;31.17;45.69;98993.97;1642687;86;20992;-69
2021/07/24 12:57:46;;;;;;;3.80;2.83;;;;;;;31.17;46.94;98988.02;1664770;85;21015;-70
2021/07/24 13:00:19;;;;;;;4.03;3.00;;;;;;;31.19;45.89;98984.65;1647914;86;21209;-70
2021/07/24 13:02:46;;;;;;;6.92;2.70;;;;;;;31.25;47.73;98988.70;1616915;87;21066;-70
2021/07/24 13:05:19;;;;;;;7.10;3.00;;;;;;;31.29;44.65;98988.27;1616777;87;21147;-70
2021/07/24 13:07:52;;;;;;;4.05;2.95;;;;;;;31.33;44.13;98982.02;1674248;84;20972;-70
2021/07/24 13:10:20;;;;;;;4.00;3.15;;;;;;;31.40;43.34;98992.70;1661054;83;21022;-68
2021/07/24 13:12:49;;;;;;;15.70;4.25;;;;;;;31.48;41.24;98987.88;1664082;84;21156;-70
2021/07/24 13:15:18;;;;;;;4.53;2.90;;;;;;;31.54;39.90;98990.02;1668770;83;21556;-70
2021/07/24 13:17:46;;;;;;;9.88;3.33;;;;;;;31.59;39.03;98988.58;1657384;84;21128;-70
2021/07/24 13:20:15;;;;;;;3.87;3.10;;;;;;;31.61;37.27;98980.25;1634856;85;21550;-69
2021/07/24 13:22:43;;;;;;;3.22;2.70;;;;;;;31.64;37.36;98988.14;1651372;84;21495;-71
2021/07/24 13:30:34;;;;;;;5.22;3.00;;;;;;;31.86;39.13;98983.77;1626449;85;21460;-68
2021/07/24 13:33:02;;;;;;;5.00;3.08;;;;;;;31.92;39.09;98991.86;1627239;85;21148;-70
2021/07/24 13:35:31;;;;;;;5.08;2.85;;;;;;;31.94;39.62;98986.61;1647347;84;21116;-69
2021/07/24 13:38:04;;;;;;;9.68;3.58;;;;;;;31.96;39.10;98988.33;1669559;84;21214;-70
2021/07/24 13:40:32;;;;;;;5.92;2.98;;;;;;;31.94;39.55;98987.12;1675180;84;20939;-69
2021/07/24 13:43:02;;;;;;;7.30;3.33;;;;;;;31.92;39.85;98986.41;1682789;83;21009;-69
2021/07/24 13:45:32;;;;;;;3.35;2.72;;;;;;;31.92;40.80;98985.90;1674273;85;21075;-71
2021/07/24 13:47:59;;;;;;;3.92;3.33;;;;;;;31.92;39.65;98987.77;1677556;83;21859;-68
2021/07/24 13:50:28;;;;;;;4.95;2.90;;;;;;;31.93;40.17;98986.77;1675935;84;21763;-70
2021/07/24 13:52:56;;;;;;;4.53;2.98;;;;;;;31.92;39.53;98985.04;1678821;83;20936;-71
2021/07/24 13:55:24;;;;;;;3.50;2.83;;;;;;;31.87;39.02;98989.58;1675292;83;20922;-70
2021/07/24 13:57:51;;;;;;;3.50;2.95;;;;;;;31.79;38.54;98984.00;1668662;85;20956;-71
2021/07/24 14:00:19;;;;;;;3.75;3.17;;;;;;;31.68;38.22;98985.48;1677522;84;20944;-69
2021/07/24 14:02:48;;;;;;;5.20;3.10;;;;;;;31.56;38.66;98987.51;1673375;85;21192;-69
2021/07/24 14:05:16;;;;;;;3.12;2.83;;;;;;;31.44;38.28;98985.95;1661455;84;21186;-69
2021/07/24 14:07:45;;;;;;;4.35;3.27;;;;;;;31.38;38.42;98986.53;1648076;85;21055;-71
2021/07/24 14:10:15;;;;;;;6.30;3.02;;;;;;;31.35;38.19;98984.60;1657512;84;20932;-71
2021/07/24 14:12:45;;;;;;;4.00;3.20;;;;;;;31.27;37.45;98983.46;1660406;85;21494;-70
2021/07/24 14:15:15;;;;;;;4.60;3.17;;;;;;;31.19;37.99;98976.47;1670215;85;21549;-70
2021/07/24 14:17:43;;;;;;;10.03;3.40;;;;;;;31.13;38.42;98978.38;1670517;85;21459;-70
2021/07/24 14:20:12;;;;;;;3.42;2.87;;;;;;;31.10;38.85;98983.25;1665712;84;21216;-70
2021/07/24 14:22:40;;;;;;;3.83;2.90;;;;;;;31.09;38.18;98983.76;1672700;83;21098;-69
2021/07/24 14:25:09;;;;;;;5.00;2.90;;;;;;;31.10;37.87;98984.62;1647118;86;21149;-69
2021/07/24 14:27:38;;;;;;;5.08;4.50;;;;;;;31.13;37.94;98985.19;1623742;87;21205;-68
2021/07/24 14:30:07;;;;;;;5.03;4.03;;;;;;;31.17;37.83;98982.57;1616315;87;20967;-68
2021/07/24 14:32:35;;;;;;;4.12;3.72;;;;;;;31.19;37.20;98976.98;1650322;84;21468;-68
2021/07/24 14:35:03;;;;;;;4.30;3.22;;;;;;;31.21;38.40;98979.05;1678116;83;21607;-69
2021/07/24 14:37:30;;;;;;;4.87;3.35;;;;;;;31.24;38.48;98980.16;1669389;83;21704;-69
2021/07/24 14:39:58;;;;;;;6.00;3.15;;;;;;;31.26;39.14;98976.28;1662456;84;21564;-67
2021/07/24 14:42:30;;;;;;;6.65;3.65;;;;;;;31.26;38.77;98981.73;1667889;84;20964;-67
2021/07/24 14:44:55;;;;;;;11.55;3.65;;;;;;;31.20;39.18;98986.38;1670954;84;20889;-69
2021/07/24 14:47:24;;;;;;;6.08;3.30;;;;;;;31.09;39.01;98982.39;1670610;85;20978;-76
2021/07/24 14:50:02;;;;;;;13.40;3.35;;;;;;;30.99;39.17;98982.39;1658764;85;20855;-70
2021/07/24 14:52:29;;;;;;;7.62;3.42;;;;;;;30.91;38.29;98989.55;1599973;88;21819;-70
2021/07/24 14:54:56;;;;;;;4.35;3.20;;;;;;;30.82;39.06;98989.05;1608941;88;21518;-70
2021/07/24 14:57:28;;;;;;;4.83;3.45;;;;;;;30.72;38.88;98986.28;1611803;88;21045;-70
2021/07/24 14:59:56;;;;;;;6.97;3.60;;;;;;;30.65;39.33;98989.20;1598854;87;21082;-70
2021/07/24 15:02:25;;;;;;;3.85;3.30;;;;;;;30.57;40.37;98994.45;1624364;87;21454;-69
2021/07/24 15:04:53;;;;;;;5.08;3.42;;;;;;;30.47;40.27;98991.70;1609592;87;21161;-70
2021/07/24 15:07:22;;;;;;;4.00;3.60;;;;;;;30.35;40.95;98990.95;1610382;87;20915;-70
2021/07/24 15:09:50;;;;;;;6.30;3.47;;;;;;;30.24;41.59;98991.03;1622228;88;20938;-71
2021/07/24 15:12:21;;;;;;;7.12;4.00;;;;;;;30.10;42.19;98991.41;1611990;88;21055;-70
2021/07/24 15:14:52;;;;;;;4.85;3.50;;;;;;;29.96;42.76;98993.95;1617913;87;21122;-70
2021/07/24 15:17:20;;;;;;;4.05;3.22;;;;;;;29.83;43.13;98991.09;1610030;88;21794;-70
2021/07/24 15:19:50;;;;;;;4.17;3.55;;;;;;;29.69;43.48;98993.13;1625501;87;21758;-70
2021/07/24 15:22:17;;;;;;;5.90;3.90;;;;;;;29.56;43.97;98996.55;1609470;87;20938;-69
2021/07/24 15:24:45;;;;;;;8.60;4.10;;;;;;;29.43;45.09;98994.04;1665671;84;21129;-69
2021/07/24 15:27:13;;;;;;;8.00;3.70;;;;;;;29.32;45.80;98994.03;1668452;84;21113;-70
2021/07/24 15:29:40;;;;;;;6.67;3.90;;;;;;;29.23;46.31;98998.03;1674743;85;21234;-67
2021/07/24 15:32:08;;;;;;;4.45;3.55;;;;;;;29.11;46.49;98993.16;1667660;84;20903;-68
2021/07/24 15:34:36;;;;;;;9.10;4.35;;;;;;;29.02;46.64;98995.29;1661073;85;21003;-69
2021/07/24 15:37:04;;;;;;;6.53;3.40;;;;;;;28.94;46.96;98992.36;1664357;85;21160;-70
2021/07/24 15:39:36;;;;;;;5.50;3.95;;;;;;;28.84;47.24;98990.88;1665675;85;21011;-69
2021/07/24 15:42:04;;;;;;;6.00;3.70;;;;;;;28.77;47.72;98994.57;1667676;85;21173;-67
2021/07/24 15:44:32;;;;;;;5.12;3.70;;;;;;;28.70;48.71;98993.85;1656502;85;20939;-68
2021/07/24 15:47:00;;;;;;;6.75;4.15;;;;;;;28.64;49.53;98991.65;1664210;84;20913;-69
2021/07/24 15:49:28;;;;;;;4.55;4.15;;;;;;;28.57;50.71;98999.44;1660716;85;20939;-69
2021/07/24 15:51:56;;;;;;;7.05;4.37;;;;;;;28.50;51.39;99000.44;1681314;83;20952;-69
2021/07/24 15:54:25;;;;;;;10.78;5.08;;;;;;;28.45;52.82;99000.45;1709017;82;21502;-69
2021/07/24 15:56:53;;;;;;;5.80;4.25;;;;;;;28.38;52.24;98996.47;1711272;82;20884;-69
2021/07/24 15:59:20;;;;;;;12.95;4.78;;;;;;;28.31;53.61;98997.97;1709364;82;21478;-69
2021/07/24 16:01:48;;;;;;;11.48;5.10;;;;;;;28.24;54.79;98998.95;1709882;83;20904;-68
2021/07/24 16:04:15;;;;;;;5.72;4.67;;;;;;;28.18;56.16;98996.70;1709565;83;20972;-68
2021/07/24 16:06:44;;;;;;;6.45;4.72;;;;;;;28.15;54.99;99001.89;1711884;83;21096;-69
2021/07/24 16:09:11;;;;;;;6.10;4.50;;;;;;;28.12;53.68;98994.00;1709961;83;20900;-69
2021/07/24 16:11:40;;;;;;;29.05;5.25;;;;;;;28.13;54.90;98996.22;1708449;83;21435;-69
2021/07/24 16:14:09;;;;;;;4.67;4.17;;;;;;;28.14;55.48;99002.87;1711956;83;21434;-68
2021/07/24 16:16:37;;;;;;;4.28;3.87;;;;;;;28.17;54.61;99001.27;1709267;83;20960;-69
2021/07/24 16:19:04;;;;;;;6.03;4.20;;;;;;;28.16;51.60;98999.55;1709683;83;21878;-68
2021/07/24 16:21:33;;;;;;;6.85;4.00;;;;;;;28.16;50.11;99000.90;1709193;83;21392;-69
2021/07/24 16:24:02;;;;;;;12.63;4.62;;;;;;;28.16;52.13;99002.26;1704258;82;21384;-70
2021/07/24 16:26:30;;;;;;;5.95;4.28;;;;;;;28.17;53.53;99008.55;1700317;83;20892;-69
2021/07/24 16:28:57;;;;;;;6.53;4.22;;;;;;;28.17;55.29;99003.98;1673033;84;20868;-70
2021/07/24 16:31:24;;;;;;;5.40;3.98;;;;;;;28.18;55.69;99000.77;1674990;85;21158;-69
2021/07/24 16:33:52;;;;;;;4.50;3.90;;;;;;;28.17;56.99;99001.27;1672224;84;20982;-70
2021/07/24 16:36:19;;;;;;;4.40;3.70;;;;;;;28.14;56.02;99002.87;1680277;84;21556;-69
2021/07/24 16:38:47;;;;;;;5.70;4.00;;;;;;;28.12;54.77;99007.56;1669866;85;21027;-68
2021/07/24 16:41:14;;;;;;;11.15;4.05;;;;;;;28.07;54.41;99012.98;1685398;84;20895;-70
2021/07/24 16:43:42;;;;;;;6.45;4.20;;;;;;;28.01;54.48;99014.83;1686430;84;21137;-70
2021/07/24 16:46:09;;;;;;;7.20;3.80;;;;;;;27.95;54.44;99018.03;1676582;84;20896;-70
2021/07/24 16:48:37;;;;;;;5.12;3.95;;;;;;;27.88;55.71;99010.84;1674971;84;20907;-70
2021/07/24 16:51:06;;;;;;;6.12;4.12;;;;;;;27.81;55.95;99011.83;1671263;84;20864;-70
2021/07/24 16:53:37;;;;;;;7.53;4.22;;;;;;;27.75;57.45;99010.95;1677002;84;21080;-69
2021/07/24 16:56:05;;;;;;;5.33;4.08;;;;;;;27.67;59.24;99013.90;1673809;84;21094;-70
2021/07/24 16:58:33;;;;;;;7.55;4.08;;;;;;;27.58;59.84;99016.31;1683226;84;21051;-69
2021/07/24 17:01:10;;;;;;;10.72;4.22;;;;;;;27.50;61.00;99011.98;1678570;84;20915;-70
2021/07/24 17:03:38;;;;;;;12.23;4.50;;;;;;;27.43;62.68;99016.61;1682348;84;20939;-70
2021/07/24 17:06:05;;;;;;;14.80;4.55;;;;;;;27.33;65.45;99010.17;1666099;85;21494;-70
2021/07/24 17:08:32;;;;;;;7.53;4.30;;;;;;;27.22;69.34;99014.57;1669845;84;21132;-69
2021/07/24 17:11:07;;;;;;;9.20;4.75;;;;;;;27.11;74.23;99010.95;1681454;84;21077;-69
2021/07/24 17:13:38;;;;;;;6.22;5.03;;;;;;;27.00;77.33;99010.91;1673634;84;21377;-68
2021/07/24 17:16:08;;;;;;;11.97;5.05;;;;;;;26.87;83.77;99011.77;1662884;85;20899;-69
2021/07/24 17:18:36;;;;;;;5.45;4.83;;;;;;;26.75;90.83;99007.77;1681738;84;21014;-69
2021/07/24 17:21:04;;;;;;;8.03;4.37;;;;;;;26.62;95.17;99003.76;1671011;84;21116;-69
2021/07/24 17:23:32;;;;;;;6.45;4.53;;;;;;;26.47;97.72;99004.86;1672683;84;21487;-69
2021/07/24 17:25:59;;;;;;;7.30;4.58;;;;;;;26.34;99.59;99005.77;1675931;84;20963;-68
2021/07/24 17:28:27;;;;;;;16.02;5.42;;;;;;;26.22;100.00;99005.76;1668451;84;21502;-70
2021/07/24 17:30:55;;;;;;;17.30;5.12;;;;;;;26.08;100.00;99010.81;1673016;84;21022;-70
2021/07/24 17:33:23;;;;;;;13.13;5.25;;;;;;;25.96;100.00;99013.88;1665445;84;21084;-69
2021/07/24 17:35:51;;;;;;;12.75;6.28;;;;;;;25.85;100.00;99009.72;1672869;84;20947;-70
2021/07/24 17:38:18;;;;;;;19.85;9.88;;;;;;;25.76;100.00;99009.50;1674262;84;20975;-69
2021/07/24 17:40:47;;;;;;;29.75;14.53;;;;;;;25.62;100.00;99009.95;1667696;84;21023;-69
2021/07/24 17:43:15;;;;;;;45.20;20.65;;;;;;;25.53;100.00;99016.45;1670040;84;21462;-69
2021/07/24 17:45:42;;;;;;;49.42;21.48;;;;;;;25.41;100.00;99023.08;1671061;84;22047;-69
2021/07/24 17:48:10;;;;;;;51.90;25.02;;;;;;;25.28;100.00;99018.63;1672446;85;20868;-71
2021/07/24 17:50:38;;;;;;;135.15;33.75;;;;;;;25.16;100.00;99020.81;1673080;83;20944;-71
2021/07/24 17:53:06;;;;;;;88.45;34.80;;;;;;;25.04;100.00;99023.34;1670722;85;20944;-71
2021/07/24 17:55:35;;;;;;;67.32;31.60;;;;;;;24.93;100.00;99028.56;1670309;84;21410;-71
2021/07/24 17:58:03;;;;;;;60.20;31.95;;;;;;;24.82;100.00;99025.72;1669162;84;21768;-65
2021/07/24 18:00:31;;;;;;;97.27;48.80;;;;;;;24.71;100.00;99029.61;1673178;85;21674;-69
2021/07/24 18:02:59;;;;;;;65.40;38.80;;;;;;;24.59;100.00;99036.64;1674014;84;21526;-68
2021/07/24 18:05:26;;;;;;;46.45;27.80;;;;;;;24.49;100.00;99045.81;1686535;84;20895;-70
2021/07/24 18:07:56;;;;;;;54.80;32.65;;;;;;;24.38;100.00;99040.24;1682228;84;21394;-68
2021/07/24 18:10:23;;;;;;;60.38;34.05;;;;;;;24.28;100.00;99040.45;1672812;84;21093;-67
2021/07/24 18:12:50;;;;;;;84.13;46.70;;;;;;;24.21;100.00;99053.03;1681070;84;20907;-69
2021/07/24 18:15:18;;;;;;;84.80;46.40;;;;;;;24.11;100.00;99054.06;1676781;85;21028;-67
2021/07/24 18:17:46;;;;;;;62.17;38.33;;;;;;;24.03;100.00;99065.33;1670961;84;21633;-67
2021/07/24 18:20:13;;;;;;;48.83;27.42;;;;;;;23.92;100.00;99062.44;1663474;84;20980;-67
2021/07/24 18:22:41;;;;;;;36.75;22.07;;;;;;;23.84;100.00;99056.66;1673210;84;21132;-69
2021/07/24 18:25:09;;;;;;;35.48;21.97;;;;;;;23.76;100.00;99059.82;1653533;85;20907;-71
2021/07/24 18:27:37;;;;;;;43.80;25.50;;;;;;;23.69;100.00;99057.12;1668296;84;20954;-69
2021/07/24 18:30:06;;;;;;;53.25;33.35;;;;;;;23.62;100.00;99061.59;1676633;84;20976;-72
2021/07/24 18:32:34;;;;;;;57.40;36.88;;;;;;;23.55;100.00;99063.31;1667543;84;20959;-71
2021/07/24 18:35:03;;;;;;;53.68;35.80;;;;;;;23.48;100.00;99061.05;1667163;84;21148;-71
2021/07/24 18:37:32;;;;;;;51.00;32.25;;;;;;;23.40;100.00;99066.03;1680110;84;20982;-73
2021/07/24 18:40:01;;;;;;;39.53;27.50;;;;;;;23.31;100.00;99070.13;1667824;84;20928;-72
2021/07/24 18:42:29;;;;;;;121.55;27.07;;;;;;;23.23;100.00;99071.94;1676664;85;21402;-72
2021/07/24 18:44:56;;;;;;;42.98;19.15;;;;;;;23.14;100.00;99077.83;1670673;84;20907;-74
2021/07/24 18:47:24;;;;;;;28.25;15.15;;;;;;;23.06;100.00;99078.75;1641607;84;21527;-72
2021/07/24 18:49:51;;;;;;;17.67;11.93;;;;;;;22.97;100.00;99081.11;1671109;85;20959;-72
2021/07/24 18:52:19;;;;;;;37.85;20.70;;;;;;;22.89;100.00;99086.93;1677820;85;20935;-70
2021/07/24 18:54:46;;;;;;;82.60;32.80;;;;;;;22.82;100.00;99088.23;1678204;84;21125;-71
2021/07/24 18:57:15;;;;;;;47.05;28.60;;;;;;;22.73;100.00;99091.42;1669100;84;21035;-71
2021/07/24 18:59:44;;;;;;;44.00;26.60;;;;;;;22.64;100.00;99095.46;1664808;85;21069;-67
2021/07/24 19:02:12;;;;;;;31.55;23.38;;;;;;;22.55;100.00;99096.84;1666435;85;21400;-71
2021/07/24 19:04:40;;;;;;;28.47;18.55;;;;;;;22.47;100.00;99108.50;1678906;83;20916;-72
2021/07/24 19:07:09;;;;;;;22.22;13.65;;;;;;;22.41;100.00;99112.00;1651926;83;20912;-72
2021/07/24 19:09:37;;;;;;;19.02;10.65;;;;;;;;;;1678214;84;21482;-73